Time;durP1;ratioP1;P1;durP2;ratioP2;P2;SDS_P1;SDS_P2;PMS_P1;PMS_P2;Temp;Humidity;BMP_temperature;BMP_pressure;BME280_temperature;BME280_humidity;BME280_pressure;Samples;Min_cycle;Max_cycle;Signal;HPM_P1;HPM_P2
2023/12/27 00:00:56;;;;;;;3.30;1.88;;;;;;;;;;8264300;28;20046;-87
2023/12/27 00:05:20;;;;;;;4.75;1.77;;;;;;;;;;8264583;28;20050;-87
2023/12/27 00:09:25;;;;;;;4.10;2.05;;;;;;;;;;8264617;28;20125;-87
2023/12/27 00:13:28;;;;;;;4.22;2.00;;;;;;;;;;8264938;28;20478;-88
2023/12/27 00:17:31;;;;;;;5.25;2.08;;;;;;;;;;8239187;28;20051;-88
2023/12/27 00:21:35;;;;;;;3.65;2.00;;;;;;;;;;8238207;28;20134;-87
2023/12/27 00:25:40;;;;;;;5.25;1.88;;;;;;;;;;8240095;28;20058;-88
2023/12/27 00:29:42;;;;;;;6.97;2.40;;;;;;;;;;8263562;28;20044;-88
2023/12/27 00:39:01;;;;;;;3.05;2.10;;;;;;;;;;8230090;28;20058;-88
2023/12/27 00:43:05;;;;;;;4.88;1.83;;;;;;;;;;8246935;28;20417;-87
2023/12/27 00:47:23;;;;;;;4.63;2.08;;;;;;;;;;8263485;28;20100;-88
2023/12/27 00:51:36;;;;;;;4.05;2.40;;;;;;;;;;8250348;28;20046;-88
2023/12/27 01:05:51;;;;;;;3.45;2.20;;;;;;;;;;8239095;28;20070;-88
2023/12/27 01:09:53;;;;;;;4.47;2.35;;;;;;;;;;8264109;28;20461;-88
2023/12/27 01:13:59;;;;;;;2.53;1.80;;;;;;;;;;8263665;28;20049;-89
2023/12/27 01:18:02;;;;;;;4.75;1.73;;;;;;;;;;8263024;28;20050;-89
2023/12/27 01:22:06;;;;;;;2.80;1.65;;;;;;;;;;8262879;28;20230;-88
2023/12/27 01:26:09;;;;;;;1.65;1.50;;;;;;;;;;8263040;28;20047;-89
2023/12/27 01:30:13;;;;;;;4.32;1.60;;;;;;;;;;8263263;28;20042;-88
2023/12/27 01:34:15;;;;;;;2.20;1.80;;;;;;;;;;8263661;28;20096;-89
2023/12/27 01:38:35;;;;;;;1.55;1.40;;;;;;;;;;8251708;28;20049;-88
2023/12/27 01:42:39;;;;;;;6.32;1.80;;;;;;;;;;8266928;28;20466;-88
2023/12/27 01:46:47;;;;;;;2.85;1.80;;;;;;;;;;8268437;28;20494;-88
2023/12/27 01:50:51;;;;;;;4.70;2.20;;;;;;;;;;8252519;28;20046;-87
2023/12/27 01:54:56;;;;;;;2.97;2.05;;;;;;;;;;8268377;28;20142;-87
2023/12/27 01:58:59;;;;;;;1.85;1.60;;;;;;;;;;8268190;28;20046;-88
2023/12/27 02:03:02;;;;;;;3.22;1.65;;;;;;;;;;8268127;28;20058;-88
2023/12/27 02:07:07;;;;;;;2.40;1.63;;;;;;;;;;8268379;28;20479;-87
2023/12/27 02:11:20;;;;;;;2.30;1.73;;;;;;;;;;8250918;28;20062;-88
2023/12/27 02:15:23;;;;;;;1.30;1.20;;;;;;;;;;8267421;28;20049;-88
2023/12/27 02:19:35;;;;;;;2.35;1.50;;;;;;;;;;8267492;28;20153;-87
2023/12/27 02:23:39;;;;;;;1.63;1.40;;;;;;;;;;8267426;28;20085;-87
2023/12/27 02:27:44;;;;;;;2.30;1.70;;;;;;;;;;8267745;28;20050;-88
2023/12/27 02:31:48;;;;;;;1.40;1.30;;;;;;;;;;8250164;28;20053;-87
2023/12/27 02:35:50;;;;;;;1.92;1.40;;;;;;;;;;8267504;28;20086;-87
2023/12/27 02:39:53;;;;;;;1.90;1.70;;;;;;;;;;8267082;28;20102;-87
2023/12/27 02:43:58;;;;;;;1.90;1.30;;;;;;;;;;8249618;28;20410;-87
2023/12/27 02:48:01;;;;;;;1.30;1.20;;;;;;;;;;8265716;28;20046;-87
2023/12/27 02:52:04;;;;;;;2.10;1.35;;;;;;;;;;8266571;28;20153;-88
2023/12/27 03:00:30;;;;;;;1.77;1.30;;;;;;;;;;8266131;28;20747;-87
2023/12/27 03:04:36;;;;;;;3.33;1.38;;;;;;;;;;8266287;28;20050;-86
2023/12/27 03:08:39;;;;;;;1.20;1.20;;;;;;;;;;8282091;28;20085;-87
2023/12/27 03:12:42;;;;;;;4.07;1.52;;;;;;;;;;8265854;28;20108;-86
2023/12/27 03:16:46;;;;;;;1.40;1.27;;;;;;;;;;8248330;28;20050;-87
2023/12/27 03:20:49;;;;;;;2.28;1.20;;;;;;;;;;8266056;28;20049;-87
2023/12/27 03:24:52;;;;;;;1.30;1.20;;;;;;;;;;8262296;28;20049;-88
2023/12/27 03:28:55;;;;;;;2.90;1.55;;;;;;;;;;8265799;28;20560;-88
2023/12/27 03:33:00;;;;;;;3.38;1.50;;;;;;;;;;8248006;28;20069;-86
2023/12/27 03:37:03;;;;;;;1.52;1.42;;;;;;;;;;8264977;28;20046;-87
2023/12/27 03:41:06;;;;;;;2.22;1.70;;;;;;;;;;8265351;28;20058;-87
2023/12/27 03:45:10;;;;;;;3.38;1.60;;;;;;;;;;8264793;28;20129;-87
2023/12/27 03:49:14;;;;;;;3.65;1.80;;;;;;;;;;8248025;28;20137;-86
2023/12/27 03:53:17;;;;;;;1.70;1.60;;;;;;;;;;8265303;28;20100;-87
2023/12/27 03:57:33;;;;;;;1.63;1.40;;;;;;;;;;8264658;28;20046;-88
2023/12/27 04:01:36;;;;;;;4.68;1.50;;;;;;;;;;8264835;28;20169;-87
2023/12/27 04:05:41;;;;;;;5.40;2.25;;;;;;;;;;8264468;28;20046;-87
2023/12/27 04:09:52;;;;;;;6.63;1.92;;;;;;;;;;8264637;28;20058;-87
2023/12/27 04:13:55;;;;;;;5.93;1.90;;;;;;;;;;8264366;28;20503;-87
2023/12/27 04:17:58;;;;;;;2.90;2.00;;;;;;;;;;8231285;28;20070;-87
2023/12/27 04:22:02;;;;;;;2.13;1.60;;;;;;;;;;8264125;28;20038;-86
2023/12/27 04:26:05;;;;;;;8.65;3.97;;;;;;;;;;8264333;28;20050;-86
2023/12/27 04:30:10;;;;;;;5.10;2.33;;;;;;;;;;8247340;28;20065;-87
2023/12/27 04:34:19;;;;;;;5.57;2.85;;;;;;;;;;8247267;28;20050;-87
2023/12/27 04:38:24;;;;;;;8.93;3.45;;;;;;;;;;8264181;28;20552;-86
2023/12/27 04:42:27;;;;;;;8.60;2.92;;;;;;;;;;8246597;28;20066;-88
2023/12/27 04:46:30;;;;;;;14.88;6.18;;;;;;;;;;8276199;28;20062;-86
2023/12/27 04:50:34;;;;;;;3.60;2.25;;;;;;;;;;8247302;28;20406;-86
2023/12/27 04:58:49;;;;;;;3.40;1.80;;;;;;;;;;8225558;23;20541;-86
2023/12/27 05:02:52;;;;;;;2.92;2.00;;;;;;;;;;8199891;28;20495;-85
2023/12/27 05:06:55;;;;;;;9.48;2.15;;;;;;;;;;8200922;28;20081;-86
2023/12/27 05:10:58;;;;;;;9.60;2.78;;;;;;;;;;8212163;28;20109;-87
2023/12/27 05:15:03;;;;;;;8.10;2.30;;;;;;;;;;8229343;28;20065;-86
2023/12/27 05:19:06;;;;;;;4.70;2.17;;;;;;;;;;8218668;28;20506;-90
2023/12/27 05:23:09;;;;;;;12.25;4.90;;;;;;;;;;8230018;28;20070;-90
2023/12/27 05:27:13;;;;;;;7.43;3.13;;;;;;;;;;8231475;28;20126;-86
2023/12/27 05:31:18;;;;;;;7.70;2.60;;;;;;;;;;8205767;29;20051;-86
2023/12/27 05:35:21;;;;;;;4.55;2.33;;;;;;;;;;8236095;28;20543;-87
2023/12/27 05:39:23;;;;;;;4.10;1.90;;;;;;;;;;8213364;28;20415;-88
2023/12/27 05:43:26;;;;;;;2.83;2.00;;;;;;;;;;8219006;28;20054;-86
2023/12/27 05:47:31;;;;;;;8.73;3.63;;;;;;;;;;8212843;28;20050;-86
2023/12/27 05:51:36;;;;;;;3.67;2.25;;;;;;;;;;8213038;28;20047;-88
2023/12/27 05:55:39;;;;;;;2.33;1.77;;;;;;;;;;8202718;28;20051;-86
2023/12/27 05:59:42;;;;;;;4.35;1.90;;;;;;;;;;8210896;28;20498;-86
2023/12/27 06:03:50;;;;;;;2.97;2.05;;;;;;;;;;8214926;28;20122;-87
2023/12/27 06:07:53;;;;;;;1.73;1.58;;;;;;;;;;8211373;28;20047;-88
2023/12/27 06:11:56;;;;;;;3.28;1.65;;;;;;;;;;8204297;28;20047;-89
2023/12/27 06:15:59;;;;;;;7.45;2.00;;;;;;;;;;8229016;28;20126;-87
2023/12/27 06:20:04;;;;;;;6.20;1.83;;;;;;;;;;8217252;28;20047;-87
2023/12/27 06:24:08;;;;;;;5.82;2.70;;;;;;;;;;8190115;28;20058;-88
2023/12/27 06:28:11;;;;;;;8.90;2.88;;;;;;;;;;8235695;28;20133;-88
2023/12/27 06:32:14;;;;;;;6.88;2.72;;;;;;;;;;8222679;28;20483;-89
2023/12/27 06:36:18;;;;;;;7.00;2.17;;;;;;;;;;8203705;28;20058;-89
2023/12/27 06:40:21;;;;;;;6.28;2.00;;;;;;;;;;8219834;28;20050;-88
2023/12/27 06:44:24;;;;;;;4.45;2.00;;;;;;;;;;8214530;28;20050;-90
2023/12/27 06:48:27;;;;;;;8.43;2.45;;;;;;;;;;8222569;28;20066;-86
2023/12/27 06:53:29;;;;;;;4.53;2.20;;;;;;;;;;8212355;28;20047;-86
2023/12/27 06:57:34;;;;;;;2.80;1.88;;;;;;;;;;8211749;28;20054;-87
2023/12/27 07:01:44;;;;;;;2.45;1.65;;;;;;;;;;8228580;28;20047;-87
2023/12/27 07:05:49;;;;;;;2.80;2.10;;;;;;;;;;8210124;28;20054;-88
2023/12/27 07:10:30;;;;;;;4.85;1.98;;;;;;;;;;8203720;28;20080;-90
2023/12/27 07:14:36;;;;;;;8.05;1.90;;;;;;;;;;8046002;29;20569;-90
2023/12/27 07:18:39;;;;;;;4.53;2.03;;;;;;;;;;8032279;29;20136;-88
2023/12/27 07:22:42;;;;;;;6.82;2.50;;;;;;;;;;8031237;29;20049;-89
2023/12/27 07:26:45;;;;;;;6.20;2.50;;;;;;;;;;8058251;29;20057;-90
2023/12/27 07:30:50;;;;;;;4.20;2.80;;;;;;;;;;8051684;29;20450;-92
2023/12/27 07:34:57;;;;;;;9.85;2.17;;;;;;;;;;8048388;29;20144;-89
2023/12/27 07:39:00;;;;;;;6.85;2.30;;;;;;;;;;8169276;28;20051;-89
2023/12/27 07:43:06;;;;;;;2.15;1.70;;;;;;;;;;8196779;29;20552;-91
2023/12/27 07:47:10;;;;;;;4.97;2.05;;;;;;;;;;8202737;29;20055;-88
2023/12/27 07:51:14;;;;;;;8.27;2.65;;;;;;;;;;8202642;28;20051;-89
2023/12/27 07:55:17;;;;;;;4.78;2.60;;;;;;;;;;8201289;29;20110;-89
2023/12/27 07:59:20;;;;;;;4.85;2.58;;;;;;;;;;8198642;29;20065;-89
2023/12/27 08:03:25;;;;;;;11.48;3.90;;;;;;;;;;8202440;29;20539;-91
2023/12/27 08:07:28;;;;;;;5.95;2.40;;;;;;;;;;8198906;28;20055;-91
2023/12/27 08:11:34;;;;;;;10.60;3.80;;;;;;;;;;8217967;28;20563;-86
2023/12/27 08:15:40;;;;;;;7.25;2.90;;;;;;;;;;8225593;28;20380;-87
2023/12/27 08:19:45;;;;;;;14.20;3.50;;;;;;;;;;8199264;28;20133;-86
2023/12/27 08:23:49;;;;;;;12.45;4.95;;;;;;;;;;8231017;28;20042;-87
2023/12/27 08:27:51;;;;;;;9.02;3.63;;;;;;;;;;8214775;28;20118;-89
2023/12/27 08:32:00;;;;;;;11.13;3.15;;;;;;;;;;8200454;29;20480;-89
2023/12/27 08:36:05;;;;;;;8.70;3.55;;;;;;;;;;8209334;28;20047;-89
2023/12/27 08:40:10;;;;;;;12.30;3.55;;;;;;;;;;8201641;28;20051;-88
2023/12/27 08:44:13;;;;;;;3.55;2.20;;;;;;;;;;8207950;28;20629;-90
2023/12/27 08:48:17;;;;;;;6.57;2.50;;;;;;;;;;8218725;28;20047;-89
2023/12/27 08:52:45;;;;;;;4.50;2.67;;;;;;;;;;8206443;29;20466;-88
2023/12/27 08:56:48;;;;;;;9.65;3.42;;;;;;;;;;8201374;28;20051;-88
2023/12/27 09:00:51;;;;;;;8.20;2.70;;;;;;;;;;8206297;28;20051;-89
2023/12/27 09:05:56;;;;;;;8.65;2.97;;;;;;;;;;8206247;28;20058;-87
2023/12/27 09:10:00;;;;;;;8.07;2.22;;;;;;;;;;8204223;29;20061;-87
2023/12/27 09:14:05;;;;;;;3.47;2.00;;;;;;;;;;8207037;28;20473;-89
2023/12/27 09:18:08;;;;;;;7.07;2.38;;;;;;;;;;8190632;29;20059;-87
2023/12/27 09:22:11;;;;;;;3.83;1.90;;;;;;;;;;8206010;29;20039;-88
2023/12/27 09:26:17;;;;;;;3.08;1.95;;;;;;;;;;8216913;28;20454;-90
2023/12/27 09:30:20;;;;;;;5.38;2.53;;;;;;;;;;8177763;28;20050;-87
2023/12/27 09:34:23;;;;;;;2.33;1.70;;;;;;;;;;8222425;28;20138;-88
2023/12/27 09:38:26;;;;;;;6.80;2.45;;;;;;;;;;8205532;29;20145;-89
2023/12/27 09:42:33;;;;;;;5.30;2.10;;;;;;;;;;8204889;29;20400;-88
2023/12/27 09:46:38;;;;;;;9.63;3.22;;;;;;;;;;8207411;28;20143;-90
2023/12/27 09:50:41;;;;;;;6.07;2.38;;;;;;;;;;8188233;29;20061;-88
2023/12/27 09:54:44;;;;;;;4.78;2.38;;;;;;;;;;8209937;28;20569;-88
2023/12/27 09:58:51;;;;;;;5.78;2.67;;;;;;;;;;8218342;28;20518;-88
2023/12/27 10:02:58;;;;;;;12.07;3.13;;;;;;;;;;8229637;28;20046;-89
2023/12/27 10:07:02;;;;;;;6.90;2.40;;;;;;;;;;8217203;28;20051;-88
2023/12/27 10:11:08;;;;;;;5.88;2.80;;;;;;;;;;8213981;28;20071;-87
2023/12/27 10:15:14;;;;;;;6.63;2.53;;;;;;;;;;8204631;28;20072;-88
2023/12/27 10:19:39;;;;;;;7.05;2.63;;;;;;;;;;8204581;29;20801;-88
2023/12/27 10:23:42;;;;;;;6.28;2.42;;;;;;;;;;8204168;29;20535;-86
2023/12/27 10:27:48;;;;;;;6.10;2.90;;;;;;;;;;8222845;28;20085;-88
2023/12/27 10:32:10;;;;;;;5.63;2.63;;;;;;;;;;8215897;28;20045;-90
2023/12/27 10:36:13;;;;;;;4.28;2.30;;;;;;;;;;8203786;28;20062;-89
2023/12/27 10:40:16;;;;;;;6.43;2.80;;;;;;;;;;8204153;28;20043;-89
2023/12/27 10:44:19;;;;;;;8.18;3.55;;;;;;;;;;8204016;28;20055;-89
2023/12/27 10:48:27;;;;;;;4.60;2.08;;;;;;;;;;8267807;23;20051;-89
2023/12/27 10:52:31;;;;;;;9.20;3.40;;;;;;;;;;8234968;28;20125;-88
2023/12/27 10:56:37;;;;;;;6.20;2.30;;;;;;;;;;8233722;28;20047;-88
2023/12/27 11:00:41;;;;;;;4.35;2.20;;;;;;;;;;8235574;28;20467;-90
2023/12/27 11:04:49;;;;;;;5.15;2.65;;;;;;;;;;8217798;28;20050;-86
2023/12/27 11:08:54;;;;;;;7.65;2.60;;;;;;;;;;8172612;28;20677;-88
2023/12/27 11:13:00;;;;;;;9.98;3.80;;;;;;;;;;8234849;28;20157;-87
2023/12/27 11:17:06;;;;;;;12.15;3.78;;;;;;;;;;8232926;28;20042;-87
2023/12/27 11:21:11;;;;;;;9.48;2.67;;;;;;;;;;8230829;28;20470;-88
2023/12/27 11:25:15;;;;;;;11.20;3.88;;;;;;;;;;8233081;28;20094;-89
2023/12/27 11:29:18;;;;;;;8.52;2.80;;;;;;;;;;8233512;28;20046;-88
2023/12/27 11:33:24;;;;;;;6.60;2.63;;;;;;;;;;8233882;28;20054;-88
2023/12/27 11:37:29;;;;;;;5.93;3.13;;;;;;;;;;8233980;28;20121;-89
2023/12/27 11:41:32;;;;;;;6.85;2.83;;;;;;;;;;8233295;28;20117;-89
2023/12/27 11:45:57;;;;;;;7.53;3.20;;;;;;;;;;8233667;28;20470;-89
2023/12/27 11:50:22;;;;;;;5.40;2.60;;;;;;;;;;8232647;28;20158;-89
2023/12/27 11:54:27;;;;;;;6.63;2.42;;;;;;;;;;8233034;28;20490;-89
2023/12/27 11:58:35;;;;;;;9.82;4.38;;;;;;;;;;8232805;28;20208;-89
2023/12/27 12:02:44;;;;;;;7.20;2.72;;;;;;;;;;8193473;28;20119;-87
2023/12/27 12:07:20;;;;;;;10.02;3.60;;;;;;;;;;8221266;28;20051;-90
2023/12/27 12:11:27;;;;;;;4.93;2.42;;;;;;;;;;8166667;28;20492;-90
2023/12/27 12:15:31;;;;;;;6.18;2.35;;;;;;;;;;8216207;28;20066;-87
2023/12/27 12:19:35;;;;;;;10.65;3.30;;;;;;;;;;8231741;28;20053;-88
2023/12/27 12:23:38;;;;;;;11.13;4.57;;;;;;;;;;8232389;28;20053;-90
2023/12/27 12:27:44;;;;;;;10.18;2.80;;;;;;;;;;8232224;28;20125;-89
2023/12/27 12:31:46;;;;;;;9.32;4.55;;;;;;;;;;8232126;28;20046;-88
2023/12/27 12:35:50;;;;;;;21.52;8.60;;;;;;;;;;8231695;28;20383;-89
2023/12/27 12:39:53;;;;;;;15.40;7.00;;;;;;;;;;8231970;28;20121;-88
2023/12/27 12:43:58;;;;;;;7.40;3.30;;;;;;;;;;8224685;28;20062;-89
2023/12/27 12:48:01;;;;;;;14.90;5.00;;;;;;;;;;8231734;28;20106;-89
2023/12/27 12:52:05;;;;;;;10.98;4.20;;;;;;;;;;8231779;28;20129;-89
2023/12/27 12:56:10;;;;;;;4.05;2.17;;;;;;;;;;8228642;28;20122;-89
2023/12/27 13:00:22;;;;;;;4.20;2.15;;;;;;;;;;8231257;28;20050;-89
2023/12/27 13:04:25;;;;;;;7.63;3.50;;;;;;;;;;8230918;28;20051;-88
2023/12/27 13:08:28;;;;;;;10.00;3.78;;;;;;;;;;8230466;28;20483;-87
2023/12/27 13:12:31;;;;;;;10.15;4.18;;;;;;;;;;8231612;28;20483;-88
2023/12/27 13:16:37;;;;;;;17.25;6.00;;;;;;;;;;8214711;28;20146;-87
2023/12/27 13:20:40;;;;;;;12.95;5.30;;;;;;;;;;8231184;28;20047;-87
2023/12/27 13:24:43;;;;;;;8.23;3.42;;;;;;;;;;8231886;28;20054;-87
2023/12/27 13:28:47;;;;;;;10.25;3.17;;;;;;;;;;8231117;28;20062;-87
2023/12/27 13:32:51;;;;;;;17.83;7.00;;;;;;;;;;8235955;28;20046;-88
2023/12/27 13:36:54;;;;;;;8.95;4.55;;;;;;;;;;8237349;28;20070;-87
2023/12/27 13:40:58;;;;;;;12.60;4.70;;;;;;;;;;8214707;28;20503;-87
2023/12/27 13:45:21;;;;;;;15.02;5.70;;;;;;;;;;8218236;28;20069;-87
2023/12/27 13:49:26;;;;;;;11.35;5.93;;;;;;;;;;8233927;28;20058;-88
2023/12/27 13:53:29;;;;;;;7.40;3.15;;;;;;;;;;8219116;28;20505;-88
2023/12/27 13:57:32;;;;;;;53.97;14.63;;;;;;;;;;8236093;28;20050;-88
2023/12/27 14:01:39;;;;;;;17.67;6.78;;;;;;;;;;8235815;28;20474;-88
2023/12/27 14:05:44;;;;;;;15.38;4.80;;;;;;;;;;8233352;28;20406;-88
2023/12/27 14:09:47;;;;;;;17.90;4.68;;;;;;;;;;8218848;28;20523;-89
2023/12/27 14:13:50;;;;;;;14.82;7.13;;;;;;;;;;8203345;28;20146;-89
2023/12/27 14:17:53;;;;;;;20.55;6.72;;;;;;;;;;8237767;28;20066;-86
2023/12/27 14:22:00;;;;;;;22.73;9.30;;;;;;;;;;8236145;28;20087;-86
2023/12/27 14:26:05;;;;;;;17.42;6.80;;;;;;;;;;8219239;28;20055;-88
2023/12/27 14:30:09;;;;;;;27.88;9.55;;;;;;;;;;8235045;28;20039;-88
2023/12/27 14:34:21;;;;;;;54.53;13.65;;;;;;;;;;8235146;28;20118;-88
2023/12/27 14:44:00;;;;;;;28.63;10.40;;;;;;;;;;8224307;28;20082;-86
2023/12/27 14:48:04;;;;;;;36.13;11.98;;;;;;;;;;8237067;28;20085;-88
2023/12/27 14:52:07;;;;;;;29.65;12.98;;;;;;;;;;8235375;28;20495;-88
2023/12/27 15:01:27;;;;;;;29.48;8.85;;;;;;;;;;8135435;29;20117;-88
2023/12/27 15:05:30;;;;;;;22.20;7.55;;;;;;;;;;8202201;29;20559;-87
2023/12/27 15:09:33;;;;;;;14.13;5.65;;;;;;;;;;8202173;29;20130;-87
2023/12/27 15:13:37;;;;;;;8.35;3.95;;;;;;;;;;8202210;29;20411;-88
2023/12/27 15:17:42;;;;;;;7.18;3.33;;;;;;;;;;8201528;29;20050;-88
2023/12/27 15:21:46;;;;;;;8.05;4.57;;;;;;;;;;8185125;29;20079;-87
2023/12/27 15:25:49;;;;;;;9.57;3.85;;;;;;;;;;8202740;29;20061;-87
2023/12/27 15:29:57;;;;;;;14.98;4.10;;;;;;;;;;8204144;29;20115;-88
2023/12/27 15:34:02;;;;;;;11.82;4.65;;;;;;;;;;8198778;29;20043;-88
2023/12/27 15:38:05;;;;;;;9.23;3.90;;;;;;;;;;8201614;28;20045;-87
2023/12/27 15:42:08;;;;;;;9.60;4.07;;;;;;;;;;8201526;28;20047;-88
2023/12/27 15:46:15;;;;;;;14.73;5.13;;;;;;;;;;8185238;29;20106;-86
2023/12/27 15:50:21;;;;;;;11.63;4.85;;;;;;;;;;8184283;29;20059;-87
2023/12/27 15:54:24;;;;;;;18.35;6.15;;;;;;;;;;8201632;28;20051;-87
2023/12/27 15:58:27;;;;;;;15.40;8.48;;;;;;;;;;8202291;29;20522;-87
2023/12/27 16:06:54;;;;;;;24.92;12.10;;;;;;;;;;8205406;29;20062;-89
2023/12/27 16:10:57;;;;;;;27.08;11.23;;;;;;;;;;8203713;29;20053;-89
2023/12/27 16:15:00;;;;;;;40.65;19.38;;;;;;;;;;8206165;29;20475;-91
2023/12/27 16:19:05;;;;;;;133.50;56.85;;;;;;;;;;8204799;29;20051;-88
2023/12/27 16:23:10;;;;;;;106.00;44.35;;;;;;;;;;8204260;29;20047;-90
2023/12/27 16:27:14;;;;;;;37.45;16.30;;;;;;;;;;8209625;29;20043;-90
2023/12/27 16:31:20;;;;;;;25.90;10.40;;;;;;;;;;8207398;29;20086;-89
2023/12/27 16:35:23;;;;;;;25.05;9.05;;;;;;;;;;8205693;29;20491;-88
2023/12/27 16:39:27;;;;;;;79.25;32.88;;;;;;;;;;8205009;29;20392;-89
2023/12/27 16:43:36;;;;;;;58.72;21.05;;;;;;;;;;8201114;29;20043;-88
2023/12/27 16:47:45;;;;;;;42.38;23.08;;;;;;;;;;8184339;29;20488;-89
2023/12/27 16:51:49;;;;;;;22.83;12.85;;;;;;;;;;8184692;29;20078;-89
2023/12/27 16:55:58;;;;;;;19.15;9.05;;;;;;;;;;8201020;29;20499;-86
2023/12/27 17:00:09;;;;;;;18.88;9.52;;;;;;;;;;8200606;29;20051;-88
2023/12/27 17:04:14;;;;;;;283.67;69.60;;;;;;;;;;8201434;29;20047;-89
2023/12/27 17:08:18;;;;;;;91.32;35.35;;;;;;;;;;8206183;29;20051;-85
2023/12/27 17:12:25;;;;;;;51.88;24.02;;;;;;;;;;8208005;29;20054;-86
2023/12/27 17:16:30;;;;;;;52.67;25.15;;;;;;;;;;8206278;29;20498;-86
2023/12/27 17:20:36;;;;;;;249.65;70.45;;;;;;;;;;8205961;29;20539;-86
2023/12/27 17:24:39;;;;;;;271.85;93.72;;;;;;;;;;8206459;29;20043;-89
2023/12/27 17:28:44;;;;;;;55.55;24.77;;;;;;;;;;8206249;29;20051;-86
2023/12/27 17:32:47;;;;;;;194.27;59.67;;;;;;;;;;8205771;29;20104;-88
2023/12/27 17:36:50;;;;;;;118.28;41.40;;;;;;;;;;8189459;29;20126;-86
2023/12/27 17:40:53;;;;;;;27.88;16.77;;;;;;;;;;8205629;29;20071;-87
2023/12/27 17:44:57;;;;;;;34.83;14.93;;;;;;;;;;8205257;29;20407;-87
2023/12/27 17:49:00;;;;;;;183.23;59.92;;;;;;;;;;8191284;28;20107;-88
2023/12/27 17:53:03;;;;;;;223.95;74.80;;;;;;;;;;8207183;29;20047;-89
2023/12/27 17:57:07;;;;;;;88.25;40.97;;;;;;;;;;8188606;29;20082;-91
2023/12/27 18:01:12;;;;;;;37.83;17.92;;;;;;;;;;8187805;29;20056;-87
2023/12/27 18:05:15;;;;;;;38.25;17.45;;;;;;;;;;8181425;29;20130;-87
2023/12/27 18:09:17;;;;;;;26.25;11.93;;;;;;;;;;8173029;29;20048;-86
2023/12/27 18:13:24;;;;;;;392.33;103.25;;;;;;;;;;8172674;29;20051;-87
2023/12/27 18:17:30;;;;;;;94.25;40.70;;;;;;;;;;8172562;29;20048;-87
2023/12/27 18:21:34;;;;;;;61.13;29.52;;;;;;;;;;8172347;29;20043;-87
2023/12/27 18:25:37;;;;;;;81.43;36.90;;;;;;;;;;8172512;29;20055;-88
2023/12/27 18:34:24;;;;;;;134.43;52.25;;;;;;;;;;8143472;29;20063;-87
2023/12/27 18:38:27;;;;;;;89.72;38.10;;;;;;;;;;8156329;29;20546;-89
2023/12/27 18:42:30;;;;;;;54.75;25.88;;;;;;;;;;8172333;29;20503;-88
2023/12/27 18:46:33;;;;;;;74.85;33.90;;;;;;;;;;8171844;29;20460;-88
2023/12/27 18:50:37;;;;;;;70.75;21.70;;;;;;;;;;8171219;29;20419;-86
2023/12/27 18:54:40;;;;;;;44.00;19.15;;;;;;;;;;8154787;29;20055;-87
2023/12/27 18:58:44;;;;;;;49.30;19.55;;;;;;;;;;8171432;29;20124;-87
2023/12/27 19:02:47;;;;;;;55.05;26.23;;;;;;;;;;8171680;29;20079;-88
2023/12/27 19:06:52;;;;;;;50.50;20.55;;;;;;;;;;8202960;29;20055;-87
2023/12/27 19:10:55;;;;;;;46.80;19.73;;;;;;;;;;8185920;29;20502;-87
2023/12/27 19:14:59;;;;;;;41.30;19.10;;;;;;;;;;8202855;29;20483;-89
2023/12/27 19:19:04;;;;;;;46.05;18.88;;;;;;;;;;8187019;29;20134;-89
2023/12/27 19:23:10;;;;;;;44.50;20.15;;;;;;;;;;8202908;29;20051;-87
2023/12/27 19:27:14;;;;;;;52.83;21.88;;;;;;;;;;8203080;29;20050;-89
2023/12/27 19:31:18;;;;;;;35.83;15.73;;;;;;;;;;8184976;29;20134;-88
2023/12/27 19:35:23;;;;;;;36.17;15.13;;;;;;;;;;8185707;29;20179;-88
2023/12/27 19:39:29;;;;;;;33.22;12.27;;;;;;;;;;8202298;29;20047;-89
2023/12/27 19:43:33;;;;;;;22.70;9.05;;;;;;;;;;8201746;29;20146;-87
2023/12/27 19:47:38;;;;;;;25.98;8.93;;;;;;;;;;8201745;29;20403;-89
2023/12/27 19:51:45;;;;;;;41.17;15.68;;;;;;;;;;8201990;29;20118;-87
2023/12/27 19:55:51;;;;;;;42.17;17.33;;;;;;;;;;8201528;29;20049;-89
2023/12/27 19:59:59;;;;;;;135.55;34.08;;;;;;;;;;8201206;29;20194;-89
2023/12/27 20:04:04;;;;;;;78.00;28.70;;;;;;;;;;8184635;29;20059;-86
2023/12/27 20:08:09;;;;;;;265.23;81.22;;;;;;;;;;8184247;29;20047;-88
2023/12/27 20:12:16;;;;;;;40.75;17.55;;;;;;;;;;8201210;29;20109;-89
2023/12/27 20:16:23;;;;;;;100.68;34.28;;;;;;;;;;8201516;29;20066;-88
2023/12/27 20:20:28;;;;;;;35.20;11.60;;;;;;;;;;8184973;29;20051;-89
2023/12/27 20:24:35;;;;;;;19.42;8.85;;;;;;;;;;8201109;29;20134;-88
2023/12/27 20:28:44;;;;;;;20.55;10.55;;;;;;;;;;8200903;29;20071;-87
2023/12/27 20:32:50;;;;;;;154.35;38.30;;;;;;;;;;8201480;29;20106;-88
2023/12/27 20:36:57;;;;;;;34.70;14.13;;;;;;;;;;8201049;29;20467;-85
2023/12/27 20:41:05;;;;;;;33.75;15.48;;;;;;;;;;8186044;28;20526;-89
2023/12/27 20:45:15;;;;;;;46.92;17.77;;;;;;;;;;8207254;29;20051;-89
2023/12/27 20:49:25;;;;;;;;;;;;;;;;;;8207520;29;20519;-90
2023/12/27 20:53:31;;;;;;;123.13;42.10;;;;;;;;;;8207053;29;19922;-88
2023/12/27 20:57:37;;;;;;;62.28;27.73;;;;;;;;;;8190412;29;20619;-85
2023/12/27 21:01:42;;;;;;;33.90;14.88;;;;;;;;;;8206824;29;20055;-88
2023/12/27 21:05:46;;;;;;;32.40;12.10;;;;;;;;;;8206630;29;20181;-87
2023/12/27 21:10:13;;;;;;;28.52;12.05;;;;;;;;;;8191232;29;20055;-87
2023/12/27 21:14:16;;;;;;;69.72;29.27;;;;;;;;;;8206463;29;20047;-87
2023/12/27 21:18:21;;;;;;;84.68;32.40;;;;;;;;;;8189942;29;20043;-89
2023/12/27 21:22:24;;;;;;;32.53;16.08;;;;;;;;;;8205944;29;20047;-86
2023/12/27 21:26:28;;;;;;;29.33;12.57;;;;;;;;;;8206052;29;20051;-88
2023/12/27 21:30:31;;;;;;;99.40;40.00;;;;;;;;;;8205984;29;20505;-87
2023/12/27 21:34:39;;;;;;;37.78;19.80;;;;;;;;;;8190500;29;20644;-87
2023/12/27 21:38:44;;;;;;;43.95;21.83;;;;;;;;;;8189280;29;20067;-87
2023/12/27 21:42:47;;;;;;;58.45;24.27;;;;;;;;;;8205320;29;20047;-89
2023/12/27 21:46:52;;;;;;;33.22;16.55;;;;;;;;;;8205210;29;20044;-89
2023/12/27 21:50:57;;;;;;;34.92;16.40;;;;;;;;;;8204600;28;20059;-87
2023/12/27 21:55:00;;;;;;;28.88;14.20;;;;;;;;;;8205071;29;20051;-86
2023/12/27 21:59:04;;;;;;;27.15;12.10;;;;;;;;;;8205325;29;20134;-87
2023/12/27 22:03:08;;;;;;;34.90;16.35;;;;;;;;;;8204838;29;20415;-88
2023/12/27 22:07:14;;;;;;;32.33;15.38;;;;;;;;;;8204671;29;20059;-88
2023/12/27 22:16:17;;;;;;;29.02;10.20;;;;;;;;;;8201527;29;20491;-88
2023/12/27 22:20:20;;;;;;;21.25;11.65;;;;;;;;;;8204511;29;20061;-85
2023/12/27 22:24:25;;;;;;;32.28;14.73;;;;;;;;;;8187201;29;20051;-88
2023/12/27 22:28:29;;;;;;;43.95;18.80;;;;;;;;;;8204030;29;20078;-88
2023/12/27 22:32:32;;;;;;;34.92;15.73;;;;;;;;;;8204178;29;20543;-87
2023/12/27 22:36:36;;;;;;;23.25;10.40;;;;;;;;;;8203909;29;20544;-87
2023/12/27 22:40:41;;;;;;;32.00;12.85;;;;;;;;;;8204476;29;20082;-89
2023/12/27 22:44:45;;;;;;;43.38;16.13;;;;;;;;;;8203625;29;20055;-89
2023/12/27 22:48:48;;;;;;;39.25;16.90;;;;;;;;;;8203141;29;20059;-89
2023/12/27 22:52:52;;;;;;;92.20;39.75;;;;;;;;;;8203424;29;20097;-88
2023/12/27 22:56:57;;;;;;;51.85;24.45;;;;;;;;;;8203331;29;20067;-87
2023/12/27 23:01:00;;;;;;;35.80;16.40;;;;;;;;;;8203210;29;20051;-87
2023/12/27 23:05:05;;;;;;;44.83;18.08;;;;;;;;;;8202091;28;20534;-87
2023/12/27 23:09:08;;;;;;;30.30;11.80;;;;;;;;;;8186582;29;20137;-87
2023/12/27 23:13:12;;;;;;;40.22;16.17;;;;;;;;;;8202707;29;20060;-87
2023/12/27 23:17:15;;;;;;;146.23;45.58;;;;;;;;;;8186069;29;20062;-86
2023/12/27 23:21:18;;;;;;;65.18;29.00;;;;;;;;;;8202559;29;20105;-88
2023/12/27 23:25:21;;;;;;;51.72;23.50;;;;;;;;;;8202298;29;20503;-87
2023/12/27 23:29:25;;;;;;;60.65;29.40;;;;;;;;;;8202423;29;20069;-87
2023/12/27 23:33:29;;;;;;;37.67;17.70;;;;;;;;;;8202472;29;20073;-86
2023/12/27 23:37:32;;;;;;;47.35;20.17;;;;;;;;;;8185703;29;20061;-86
2023/12/27 23:41:34;;;;;;;33.80;13.82;;;;;;;;;;8202109;29;20495;-88
2023/12/27 23:45:39;;;;;;;34.25;13.05;;;;;;;;;;8201800;29;20520;-87
2023/12/27 23:49:43;;;;;;;39.20;14.45;;;;;;;;;;8184813;29;20055;-88
2023/12/27 23:53:46;;;;;;;45.05;17.63;;;;;;;;;;8201869;29;20491;-86
2023/12/27 23:57:48;;;;;;;34.28;13.93;;;;;;;;;;8201447;29;20077;-89
